sensor_id;sensor_type;location;lat;lon;timestamp;P1;durP1;ratioP1;P2;durP2;ratioP2
54193;SDS011;40102;50.906;6.972;2023-02-02T00:01:35;14.02;;;3.03;;
54193;SDS011;40102;50.906;6.972;2023-02-02T00:04:01;16.48;;;3.20;;
54193;SDS011;40102;50.906;6.972;2023-02-02T00:06:27;13.18;;;3.58;;
54193;SDS011;40102;50.906;6.972;2023-02-02T00:08:57;14.43;;;2.80;;
54193;SDS011;40102;50.906;6.972;2023-02-02T00:11:26;12.68;;;2.88;;
54193;SDS011;40102;50.906;6.972;2023-02-02T00:13:52;17.30;;;3.92;;
54193;SDS011;40102;50.906;6.972;2023-02-02T00:18:53;15.55;;;2.63;;
54193;SDS011;40102;50.906;6.972;2023-02-02T00:21:20;15.55;;;2.97;;
54193;SDS011;40102;50.906;6.972;2023-02-02T00:23:46;13.98;;;2.63;;
54193;SDS011;40102;50.906;6.972;2023-02-02T00:26:11;13.95;;;3.78;;
54193;SDS011;40102;50.906;6.972;2023-02-02T00:28:36;11.15;;;2.80;;
54193;SDS011;40102;50.906;6.972;2023-02-02T00:31:02;12.52;;;2.78;;
54193;SDS011;40102;50.906;6.972;2023-02-02T00:33:27;11.82;;;3.15;;
54193;SDS011;40102;50.906;6.972;2023-02-02T00:35:53;17.00;;;3.22;;
54193;SDS011;40102;50.906;6.972;2023-02-02T00:38:18;11.05;;;3.40;;
54193;SDS011;40102;50.906;6.972;2023-02-02T00:40:44;12.68;;;3.72;;
54193;SDS011;40102;50.906;6.972;2023-02-02T00:43:10;11.82;;;2.50;;
54193;SDS011;40102;50.906;6.972;2023-02-02T00:45:36;17.40;;;3.13;;
54193;SDS011;40102;50.906;6.972;2023-02-02T00:48:02;11.15;;;3.10;;
54193;SDS011;40102;50.906;6.972;2023-02-02T00:50:28;19.38;;;3.80;;
54193;SDS011;40102;50.906;6.972;2023-02-02T00:52:53;12.75;;;2.72;;
54193;SDS011;40102;50.906;6.972;2023-02-02T00:55:19;19.70;;;3.50;;
54193;SDS011;40102;50.906;6.972;2023-02-02T00:57:46;13.50;;;3.05;;
54193;SDS011;40102;50.906;6.972;2023-02-02T01:00:20;12.55;;;2.47;;
54193;SDS011;40102;50.906;6.972;2023-02-02T01:03:02;11.55;;;2.60;;
54193;SDS011;40102;50.906;6.972;2023-02-02T01:05:34;14.75;;;4.15;;
54193;SDS011;40102;50.906;6.972;2023-02-02T01:08:00;9.77;;;2.60;;
54193;SDS011;40102;50.906;6.972;2023-02-02T01:10:26;12.98;;;2.72;;
54193;SDS011;40102;50.906;6.972;2023-02-02T01:12:52;9.38;;;2.78;;
54193;SDS011;40102;50.906;6.972;2023-02-02T01:15:18;15.15;;;3.20;;
54193;SDS011;40102;50.906;6.972;2023-02-02T01:17:43;14.90;;;3.17;;
54193;SDS011;40102;50.906;6.972;2023-02-02T01:20:18;15.95;;;3.05;;
54193;SDS011;40102;50.906;6.972;2023-02-02T01:22:46;11.95;;;2.47;;
54193;SDS011;40102;50.906;6.972;2023-02-02T01:25:12;14.90;;;2.75;;
54193;SDS011;40102;50.906;6.972;2023-02-02T01:27:37;16.00;;;3.58;;
54193;SDS011;40102;50.906;6.972;2023-02-02T01:30:03;14.63;;;3.38;;
54193;SDS011;40102;50.906;6.972;2023-02-02T01:32:29;11.65;;;3.05;;
54193;SDS011;40102;50.906;6.972;2023-02-02T01:34:54;12.77;;;2.72;;
54193;SDS011;40102;50.906;6.972;2023-02-02T01:37:20;16.33;;;3.42;;
54193;SDS011;40102;50.906;6.972;2023-02-02T01:39:46;14.80;;;3.55;;
54193;SDS011;40102;50.906;6.972;2023-02-02T01:42:13;13.25;;;3.28;;
54193;SDS011;40102;50.906;6.972;2023-02-02T01:47:35;11.73;;;2.80;;
54193;SDS011;40102;50.906;6.972;2023-02-02T01:50:06;13.57;;;3.15;;
54193;SDS011;40102;50.906;6.972;2023-02-02T01:52:34;10.50;;;3.17;;
54193;SDS011;40102;50.906;6.972;2023-02-02T01:55:06;14.45;;;3.47;;
54193;SDS011;40102;50.906;6.972;2023-02-02T01:57:44;10.90;;;2.70;;
54193;SDS011;40102;50.906;6.972;2023-02-02T02:00:14;12.55;;;2.95;;
54193;SDS011;40102;50.906;6.972;2023-02-02T02:02:45;16.10;;;3.67;;
54193;SDS011;40102;50.906;6.972;2023-02-02T02:05:14;11.98;;;3.30;;
54193;SDS011;40102;50.906;6.972;2023-02-02T02:07:45;9.68;;;3.38;;
54193;SDS011;40102;50.906;6.972;2023-02-02T02:10:15;12.88;;;3.53;;
54193;SDS011;40102;50.906;6.972;2023-02-02T02:12:42;13.85;;;3.00;;
54193;SDS011;40102;50.906;6.972;2023-02-02T02:15:09;13.07;;;3.25;;
54193;SDS011;40102;50.906;6.972;2023-02-02T02:27:10;12.90;;;3.25;;
54193;SDS011;40102;50.906;6.972;2023-02-02T02:38:51;13.45;;;2.88;;
54193;SDS011;40102;50.906;6.972;2023-02-02T02:41:31;13.50;;;2.92;;
54193;SDS011;40102;50.906;6.972;2023-02-02T02:44:03;18.15;;;3.67;;
54193;SDS011;40102;50.906;6.972;2023-02-02T02:46:33;16.05;;;3.38;;
54193;SDS011;40102;50.906;6.972;2023-02-02T02:48:59;12.23;;;3.08;;
54193;SDS011;40102;50.906;6.972;2023-02-02T02:54:53;16.40;;;3.33;;
54193;SDS011;40102;50.906;6.972;2023-02-02T03:07:42;19.25;;;3.33;;
54193;SDS011;40102;50.906;6.972;2023-02-02T03:12:47;12.50;;;3.33;;
54193;SDS011;40102;50.906;6.972;2023-02-02T03:15:15;19.40;;;3.10;;
54193;SDS011;40102;50.906;6.972;2023-02-02T03:17:43;12.82;;;3.13;;
54193;SDS011;40102;50.906;6.972;2023-02-02T03:20:11;13.10;;;3.10;;
54193;SDS011;40102;50.906;6.972;2023-02-02T03:22:37;11.35;;;3.28;;
54193;SDS011;40102;50.906;6.972;2023-02-02T03:25:04;19.00;;;3.42;;
54193;SDS011;40102;50.906;6.972;2023-02-02T03:27:30;14.10;;;4.07;;
54193;SDS011;40102;50.906;6.972;2023-02-02T03:29:56;16.90;;;3.65;;
54193;SDS011;40102;50.906;6.972;2023-02-02T03:32:22;18.35;;;4.25;;
54193;SDS011;40102;50.906;6.972;2023-02-02T03:34:47;14.68;;;3.60;;
54193;SDS011;40102;50.906;6.972;2023-02-02T03:37:13;17.55;;;3.63;;
54193;SDS011;40102;50.906;6.972;2023-02-02T03:39:38;18.70;;;3.80;;
54193;SDS011;40102;50.906;6.972;2023-02-02T03:42:03;17.00;;;3.88;;
54193;SDS011;40102;50.906;6.972;2023-02-02T03:44:29;13.50;;;3.47;;
54193;SDS011;40102;50.906;6.972;2023-02-02T03:46:54;16.17;;;3.88;;
54193;SDS011;40102;50.906;6.972;2023-02-02T03:49:20;18.85;;;3.70;;
54193;SDS011;40102;50.906;6.972;2023-02-02T03:51:46;13.20;;;3.50;;
54193;SDS011;40102;50.906;6.972;2023-02-02T03:54:11;14.63;;;3.33;;
54193;SDS011;40102;50.906;6.972;2023-02-02T03:56:37;13.13;;;3.60;;
54193;SDS011;40102;50.906;6.972;2023-02-02T03:59:17;15.90;;;4.10;;
54193;SDS011;40102;50.906;6.972;2023-02-02T04:01:43;17.98;;;3.90;;
54193;SDS011;40102;50.906;6.972;2023-02-02T04:04:08;13.93;;;3.72;;
54193;SDS011;40102;50.906;6.972;2023-02-02T04:06:33;19.30;;;4.30;;
54193;SDS011;40102;50.906;6.972;2023-02-02T04:09:00;17.23;;;3.22;;
54193;SDS011;40102;50.906;6.972;2023-02-02T04:11:25;14.18;;;3.33;;
54193;SDS011;40102;50.906;6.972;2023-02-02T04:13:51;12.32;;;3.03;;
54193;SDS011;40102;50.906;6.972;2023-02-02T04:16:16;16.42;;;3.85;;
54193;SDS011;40102;50.906;6.972;2023-02-02T04:18:41;13.30;;;3.65;;
54193;SDS011;40102;50.906;6.972;2023-02-02T04:21:07;15.60;;;3.42;;
54193;SDS011;40102;50.906;6.972;2023-02-02T04:23:33;17.77;;;3.88;;
54193;SDS011;40102;50.906;6.972;2023-02-02T04:25:59;15.82;;;3.63;;
54193;SDS011;40102;50.906;6.972;2023-02-02T04:28:25;12.57;;;4.00;;
54193;SDS011;40102;50.906;6.972;2023-02-02T04:30:52;17.60;;;3.90;;
54193;SDS011;40102;50.906;6.972;2023-02-02T04:33:19;13.90;;;3.60;;
54193;SDS011;40102;50.906;6.972;2023-02-02T04:35:45;15.25;;;4.07;;
54193;SDS011;40102;50.906;6.972;2023-02-02T04:38:13;11.98;;;4.13;;
54193;SDS011;40102;50.906;6.972;2023-02-02T04:40:40;9.93;;;2.97;;
54193;SDS011;40102;50.906;6.972;2023-02-02T04:43:06;11.15;;;3.28;;
54193;SDS011;40102;50.906;6.972;2023-02-02T04:45:32;16.50;;;3.97;;
54193;SDS011;40102;50.906;6.972;2023-02-02T04:47:57;13.20;;;4.03;;
54193;SDS011;40102;50.906;6.972;2023-02-02T04:50:23;14.10;;;4.00;;
54193;SDS011;40102;50.906;6.972;2023-02-02T04:52:48;15.70;;;3.92;;
54193;SDS011;40102;50.906;6.972;2023-02-02T04:55:14;13.10;;;3.55;;
54193;SDS011;40102;50.906;6.972;2023-02-02T04:57:39;10.90;;;3.70;;
54193;SDS011;40102;50.906;6.972;2023-02-02T05:00:05;13.35;;;3.95;;
54193;SDS011;40102;50.906;6.972;2023-02-02T05:02:34;11.77;;;3.75;;
54193;SDS011;40102;50.906;6.972;2023-02-02T05:05:00;21.95;;;4.68;;
54193;SDS011;40102;50.906;6.972;2023-02-02T05:07:25;15.75;;;4.38;;
54193;SDS011;40102;50.906;6.972;2023-02-02T05:09:51;15.00;;;3.90;;
54193;SDS011;40102;50.906;6.972;2023-02-02T05:12:16;18.88;;;3.88;;
54193;SDS011;40102;50.906;6.972;2023-02-02T05:14:41;15.88;;;5.13;;
54193;SDS011;40102;50.906;6.972;2023-02-02T05:17:07;16.65;;;3.92;;
54193;SDS011;40102;50.906;6.972;2023-02-02T05:19:32;10.30;;;4.05;;
54193;SDS011;40102;50.906;6.972;2023-02-02T05:22:00;21.00;;;4.30;;
54193;SDS011;40102;50.906;6.972;2023-02-02T05:24:26;20.48;;;4.57;;
54193;SDS011;40102;50.906;6.972;2023-02-02T05:27:01;15.27;;;3.80;;
54193;SDS011;40102;50.906;6.972;2023-02-02T05:29:35;14.82;;;3.70;;
54193;SDS011;40102;50.906;6.972;2023-02-02T05:32:01;17.17;;;4.32;;
54193;SDS011;40102;50.906;6.972;2023-02-02T05:34:26;21.35;;;4.53;;
54193;SDS011;40102;50.906;6.972;2023-02-02T05:36:52;16.08;;;4.40;;
54193;SDS011;40102;50.906;6.972;2023-02-02T05:39:17;24.45;;;4.07;;
54193;SDS011;40102;50.906;6.972;2023-02-02T05:41:42;13.25;;;3.75;;
54193;SDS011;40102;50.906;6.972;2023-02-02T05:44:09;19.13;;;5.10;;
54193;SDS011;40102;50.906;6.972;2023-02-02T05:46:37;13.88;;;3.70;;
54193;SDS011;40102;50.906;6.972;2023-02-02T05:49:02;20.80;;;4.35;;
54193;SDS011;40102;50.906;6.972;2023-02-02T05:51:39;14.95;;;3.58;;
54193;SDS011;40102;50.906;6.972;2023-02-02T05:54:08;15.10;;;4.83;;
54193;SDS011;40102;50.906;6.972;2023-02-02T05:56:34;19.52;;;5.10;;
54193;SDS011;40102;50.906;6.972;2023-02-02T05:58:59;14.00;;;4.10;;
54193;SDS011;40102;50.906;6.972;2023-02-02T06:01:25;16.50;;;4.60;;
54193;SDS011;40102;50.906;6.972;2023-02-02T06:03:50;19.02;;;5.07;;
54193;SDS011;40102;50.906;6.972;2023-02-02T06:06:17;14.30;;;4.43;;
54193;SDS011;40102;50.906;6.972;2023-02-02T06:08:42;11.75;;;4.45;;
54193;SDS011;40102;50.906;6.972;2023-02-02T06:11:12;16.15;;;5.57;;
54193;SDS011;40102;50.906;6.972;2023-02-02T06:13:39;14.30;;;4.15;;
54193;SDS011;40102;50.906;6.972;2023-02-02T06:16:05;15.05;;;4.25;;
54193;SDS011;40102;50.906;6.972;2023-02-02T06:18:32;18.30;;;4.03;;
54193;SDS011;40102;50.906;6.972;2023-02-02T06:20:59;20.27;;;5.18;;
54193;SDS011;40102;50.906;6.972;2023-02-02T06:23:26;15.27;;;4.45;;
54193;SDS011;40102;50.906;6.972;2023-02-02T06:25:55;13.32;;;4.35;;
54193;SDS011;40102;50.906;6.972;2023-02-02T06:28:20;13.68;;;4.43;;
54193;SDS011;40102;50.906;6.972;2023-02-02T06:30:45;16.13;;;4.18;;
54193;SDS011;40102;50.906;6.972;2023-02-02T06:33:11;18.38;;;5.45;;
54193;SDS011;40102;50.906;6.972;2023-02-02T06:35:37;13.85;;;4.47;;
54193;SDS011;40102;50.906;6.972;2023-02-02T06:38:03;12.20;;;4.18;;
54193;SDS011;40102;50.906;6.972;2023-02-02T06:40:28;13.48;;;4.55;;
54193;SDS011;40102;50.906;6.972;2023-02-02T06:42:54;20.92;;;4.70;;
54193;SDS011;40102;50.906;6.972;2023-02-02T06:45:24;14.93;;;5.10;;
54193;SDS011;40102;50.906;6.972;2023-02-02T06:47:50;12.00;;;4.50;;
54193;SDS011;40102;50.906;6.972;2023-02-02T06:50:16;14.75;;;4.45;;
54193;SDS011;40102;50.906;6.972;2023-02-02T06:52:48;15.57;;;4.38;;
54193;SDS011;40102;50.906;6.972;2023-02-02T06:55:14;14.13;;;4.53;;
54193;SDS011;40102;50.906;6.972;2023-02-02T06:57:39;15.57;;;4.60;;
54193;SDS011;40102;50.906;6.972;2023-02-02T07:00:05;10.68;;;4.15;;
54193;SDS011;40102;50.906;6.972;2023-02-02T07:02:31;14.90;;;4.40;;
54193;SDS011;40102;50.906;6.972;2023-02-02T07:04:56;12.68;;;5.13;;
54193;SDS011;40102;50.906;6.972;2023-02-02T07:07:22;12.20;;;4.15;;
54193;SDS011;40102;50.906;6.972;2023-02-02T07:09:50;13.15;;;4.35;;
54193;SDS011;40102;50.906;6.972;2023-02-02T07:12:15;9.73;;;4.80;;
54193;SDS011;40102;50.906;6.972;2023-02-02T07:14:43;14.30;;;4.47;;
54193;SDS011;40102;50.906;6.972;2023-02-02T07:17:08;15.05;;;4.70;;
54193;SDS011;40102;50.906;6.972;2023-02-02T07:19:34;16.73;;;4.85;;
54193;SDS011;40102;50.906;6.972;2023-02-02T07:21:59;21.17;;;5.38;;
54193;SDS011;40102;50.906;6.972;2023-02-02T07:24:25;12.80;;;4.57;;
54193;SDS011;40102;50.906;6.972;2023-02-02T07:26:51;14.32;;;4.25;;
54193;SDS011;40102;50.906;6.972;2023-02-02T07:29:17;15.95;;;4.82;;
54193;SDS011;40102;50.906;6.972;2023-02-02T07:31:42;14.70;;;4.53;;
54193;SDS011;40102;50.906;6.972;2023-02-02T07:34:08;13.43;;;4.80;;
54193;SDS011;40102;50.906;6.972;2023-02-02T07:36:33;14.77;;;5.00;;
54193;SDS011;40102;50.906;6.972;2023-02-02T07:38:59;15.27;;;5.38;;
54193;SDS011;40102;50.906;6.972;2023-02-02T07:41:27;10.45;;;4.40;;
54193;SDS011;40102;50.906;6.972;2023-02-02T07:43:53;12.77;;;4.13;;
54193;SDS011;40102;50.906;6.972;2023-02-02T07:46:19;17.13;;;4.88;;
54193;SDS011;40102;50.906;6.972;2023-02-02T07:48:44;14.95;;;4.15;;
54193;SDS011;40102;50.906;6.972;2023-02-02T07:51:11;14.10;;;4.30;;
54193;SDS011;40102;50.906;6.972;2023-02-02T07:53:41;18.08;;;5.05;;
54193;SDS011;40102;50.906;6.972;2023-02-02T07:56:21;13.52;;;4.13;;
54193;SDS011;40102;50.906;6.972;2023-02-02T07:58:50;11.27;;;4.38;;
54193;SDS011;40102;50.906;6.972;2023-02-02T08:01:16;10.38;;;3.75;;
54193;SDS011;40102;50.906;6.972;2023-02-02T08:03:42;7.70;;;3.60;;
54193;SDS011;40102;50.906;6.972;2023-02-02T08:06:12;11.55;;;4.05;;
54193;SDS011;40102;50.906;6.972;2023-02-02T08:08:52;15.90;;;3.92;;
54193;SDS011;40102;50.906;6.972;2023-02-02T08:11:19;17.23;;;4.68;;
54193;SDS011;40102;50.906;6.972;2023-02-02T08:13:49;10.60;;;4.43;;
54193;SDS011;40102;50.906;6.972;2023-02-02T08:16:19;12.73;;;4.15;;
54193;SDS011;40102;50.906;6.972;2023-02-02T08:18:45;12.00;;;4.55;;
54193;SDS011;40102;50.906;6.972;2023-02-02T08:21:11;16.13;;;4.63;;
54193;SDS011;40102;50.906;6.972;2023-02-02T08:23:37;16.67;;;4.78;;
54193;SDS011;40102;50.906;6.972;2023-02-02T08:26:05;14.45;;;5.03;;
54193;SDS011;40102;50.906;6.972;2023-02-02T08:28:32;19.02;;;6.13;;
54193;SDS011;40102;50.906;6.972;2023-02-02T08:31:02;16.63;;;5.03;;
54193;SDS011;40102;50.906;6.972;2023-02-02T08:33:29;11.30;;;5.10;;
54193;SDS011;40102;50.906;6.972;2023-02-02T08:35:55;11.07;;;4.80;;
54193;SDS011;40102;50.906;6.972;2023-02-02T08:38:22;11.90;;;4.65;;
54193;SDS011;40102;50.906;6.972;2023-02-02T08:40:47;15.82;;;5.07;;
54193;SDS011;40102;50.906;6.972;2023-02-02T08:43:13;19.02;;;5.15;;
54193;SDS011;40102;50.906;6.972;2023-02-02T08:45:41;14.77;;;5.22;;
54193;SDS011;40102;50.906;6.972;2023-02-02T08:48:07;12.82;;;4.97;;
54193;SDS011;40102;50.906;6.972;2023-02-02T08:50:32;21.00;;;5.75;;
54193;SDS011;40102;50.906;6.972;2023-02-02T08:52:57;10.32;;;5.15;;
54193;SDS011;40102;50.906;6.972;2023-02-02T08:55:23;14.15;;;5.60;;
54193;SDS011;40102;50.906;6.972;2023-02-02T08:57:48;16.30;;;5.47;;
54193;SDS011;40102;50.906;6.972;2023-02-02T09:00:14;12.10;;;5.10;;
54193;SDS011;40102;50.906;6.972;2023-02-02T09:02:40;15.80;;;6.38;;
54193;SDS011;40102;50.906;6.972;2023-02-02T09:05:05;17.52;;;6.63;;
54193;SDS011;40102;50.906;6.972;2023-02-02T09:07:31;15.60;;;5.70;;
54193;SDS011;40102;50.906;6.972;2023-02-02T09:09:56;22.52;;;8.07;;
54193;SDS011;40102;50.906;6.972;2023-02-02T09:12:22;15.25;;;5.70;;
54193;SDS011;40102;50.906;6.972;2023-02-02T09:14:49;17.70;;;5.82;;
54193;SDS011;40102;50.906;6.972;2023-02-02T09:17:14;18.23;;;6.57;;
54193;SDS011;40102;50.906;6.972;2023-02-02T09:19:39;10.68;;;5.15;;
54193;SDS011;40102;50.906;6.972;2023-02-02T09:22:05;14.98;;;5.97;;
54193;SDS011;40102;50.906;6.972;2023-02-02T09:24:30;15.95;;;5.85;;
54193;SDS011;40102;50.906;6.972;2023-02-02T09:26:55;17.75;;;6.15;;
54193;SDS011;40102;50.906;6.972;2023-02-02T09:29:21;18.50;;;5.50;;
54193;SDS011;40102;50.906;6.972;2023-02-02T09:31:46;18.08;;;5.82;;
54193;SDS011;40102;50.906;6.972;2023-02-02T09:34:12;16.77;;;5.88;;
54193;SDS011;40102;50.906;6.972;2023-02-02T09:36:39;13.02;;;6.10;;
54193;SDS011;40102;50.906;6.972;2023-02-02T09:39:05;15.15;;;5.68;;
54193;SDS011;40102;50.906;6.972;2023-02-02T09:41:40;15.20;;;6.03;;
54193;SDS011;40102;50.906;6.972;2023-02-02T09:52:17;13.43;;;5.30;;
54193;SDS011;40102;50.906;6.972;2023-02-02T09:54:50;14.68;;;5.80;;
54193;SDS011;40102;50.906;6.972;2023-02-02T09:57:20;16.15;;;5.60;;
54193;SDS011;40102;50.906;6.972;2023-02-02T09:59:49;18.05;;;5.88;;
54193;SDS011;40102;50.906;6.972;2023-02-02T10:02:31;14.75;;;5.65;;
54193;SDS011;40102;50.906;6.972;2023-02-02T10:05:18;10.13;;;5.32;;
54193;SDS011;40102;50.906;6.972;2023-02-02T10:07:49;12.18;;;5.88;;
54193;SDS011;40102;50.906;6.972;2023-02-02T10:10:21;14.52;;;5.32;;
54193;SDS011;40102;50.906;6.972;2023-02-02T10:15:18;11.48;;;4.78;;
54193;SDS011;40102;50.906;6.972;2023-02-02T10:21:02;15.18;;;4.78;;
54193;SDS011;40102;50.906;6.972;2023-02-02T10:23:35;18.48;;;5.47;;
54193;SDS011;40102;50.906;6.972;2023-02-02T10:28:58;14.50;;;5.15;;
54193;SDS011;40102;50.906;6.972;2023-02-02T10:31:43;15.13;;;5.53;;
54193;SDS011;40102;50.906;6.972;2023-02-02T10:45:12;16.80;;;5.85;;
54193;SDS011;40102;50.906;6.972;2023-02-02T10:47:41;15.75;;;6.05;;
54193;SDS011;40102;50.906;6.972;2023-02-02T10:52:36;12.00;;;5.53;;
54193;SDS011;40102;50.906;6.972;2023-02-02T11:03:10;14.27;;;5.15;;
54193;SDS011;40102;50.906;6.972;2023-02-02T11:05:37;14.18;;;5.82;;
54193;SDS011;40102;50.906;6.972;2023-02-02T11:08:37;12.60;;;5.25;;
54193;SDS011;40102;50.906;6.972;2023-02-02T11:16:32;14.77;;;5.55;;
54193;SDS011;40102;50.906;6.972;2023-02-02T11:21:47;11.90;;;5.13;;
54193;SDS011;40102;50.906;6.972;2023-02-02T11:24:19;14.55;;;5.57;;
54193;SDS011;40102;50.906;6.972;2023-02-02T11:26:52;11.60;;;5.18;;
54193;SDS011;40102;50.906;6.972;2023-02-02T11:32:16;19.73;;;5.13;;
54193;SDS011;40102;50.906;6.972;2023-02-02T11:35:12;11.63;;;4.90;;
54193;SDS011;40102;50.906;6.972;2023-02-02T11:41:22;16.02;;;4.97;;
54193;SDS011;40102;50.906;6.972;2023-02-02T11:43:33;10.05;;;4.30;;
54193;SDS011;40102;50.906;6.972;2023-02-02T11:46:05;11.43;;;5.13;;
54193;SDS011;40102;50.906;6.972;2023-02-02T11:48:45;12.30;;;5.32;;
54193;SDS011;40102;50.906;6.972;2023-02-02T11:51:32;8.70;;;4.65;;
54193;SDS011;40102;50.906;6.972;2023-02-02T11:54:17;11.07;;;4.43;;
54193;SDS011;40102;50.906;6.972;2023-02-02T11:56:48;11.10;;;4.50;;
54193;SDS011;40102;50.906;6.972;2023-02-02T12:07:34;13.65;;;5.78;;
54193;SDS011;40102;50.906;6.972;2023-02-02T12:10:00;14.07;;;5.72;;
54193;SDS011;40102;50.906;6.972;2023-02-02T12:12:52;18.30;;;5.35;;
54193;SDS011;40102;50.906;6.972;2023-02-02T12:18:01;21.17;;;5.13;;
54193;SDS011;40102;50.906;6.972;2023-02-02T12:20:44;10.85;;;4.82;;
54193;SDS011;40102;50.906;6.972;2023-02-02T12:23:38;15.63;;;6.32;;
54193;SDS011;40102;50.906;6.972;2023-02-02T12:26:43;10.75;;;4.88;;
54193;SDS011;40102;50.906;6.972;2023-02-02T12:29:24;10.23;;;4.80;;
54193;SDS011;40102;50.906;6.972;2023-02-02T12:32:49;13.18;;;3.95;;
54193;SDS011;40102;50.906;6.972;2023-02-02T12:41:22;11.15;;;4.55;;
54193;SDS011;40102;50.906;6.972;2023-02-02T12:44:00;13.47;;;5.00;;
54193;SDS011;40102;50.906;6.972;2023-02-02T12:58:20;11.50;;;4.47;;
54193;SDS011;40102;50.906;6.972;2023-02-02T13:01:06;12.90;;;4.95;;
54193;SDS011;40102;50.906;6.972;2023-02-02T13:03:45;11.80;;;4.80;;
54193;SDS011;40102;50.906;6.972;2023-02-02T13:09:07;15.30;;;4.88;;
54193;SDS011;40102;50.906;6.972;2023-02-02T13:14:15;16.98;;;4.22;;
54193;SDS011;40102;50.906;6.972;2023-02-02T13:16:46;10.13;;;3.85;;
54193;SDS011;40102;50.906;6.972;2023-02-02T13:21:50;8.45;;;4.18;;
54193;SDS011;40102;50.906;6.972;2023-02-02T13:24:21;9.05;;;4.10;;
54193;SDS011;40102;50.906;6.972;2023-02-02T13:26:51;9.10;;;3.72;;
54193;SDS011;40102;50.906;6.972;2023-02-02T13:34:38;9.73;;;3.80;;
54193;SDS011;40102;50.906;6.972;2023-02-02T13:39:56;13.90;;;4.28;;
54193;SDS011;40102;50.906;6.972;2023-02-02T13:42:27;14.85;;;3.97;;
54193;SDS011;40102;50.906;6.972;2023-02-02T13:45:00;10.85;;;3.75;;
54193;SDS011;40102;50.906;6.972;2023-02-02T13:47:41;8.80;;;3.72;;
54193;SDS011;40102;50.906;6.972;2023-02-02T13:50:14;10.43;;;3.40;;
54193;SDS011;40102;50.906;6.972;2023-02-02T13:52:51;12.98;;;3.30;;
54193;SDS011;40102;50.906;6.972;2023-02-02T13:58:14;10.77;;;2.88;;
54193;SDS011;40102;50.906;6.972;2023-02-02T14:01:06;7.38;;;3.13;;
54193;SDS011;40102;50.906;6.972;2023-02-02T14:03:38;10.55;;;3.08;;
54193;SDS011;40102;50.906;6.972;2023-02-02T14:06:07;11.95;;;3.67;;
54193;SDS011;40102;50.906;6.972;2023-02-02T14:08:59;9.73;;;2.78;;
54193;SDS011;40102;50.906;6.972;2023-02-02T14:13:56;9.05;;;3.45;;
54193;SDS011;40102;50.906;6.972;2023-02-02T14:16:48;10.05;;;3.05;;
54193;SDS011;40102;50.906;6.972;2023-02-02T14:22:00;10.23;;;2.55;;
54193;SDS011;40102;50.906;6.972;2023-02-02T14:45:32;8.23;;;2.40;;
54193;SDS011;40102;50.906;6.972;2023-02-02T14:53:21;5.78;;;2.30;;
54193;SDS011;40102;50.906;6.972;2023-02-02T14:56:07;10.10;;;2.30;;
54193;SDS011;40102;50.906;6.972;2023-02-02T15:17:07;8.57;;;2.15;;
54193;SDS011;40102;50.906;6.972;2023-02-02T15:19:43;5.30;;;1.80;;
54193;SDS011;40102;50.906;6.972;2023-02-02T15:24:59;7.50;;;2.03;;
54193;SDS011;40102;50.906;6.972;2023-02-02T15:29:55;8.40;;;2.08;;
54193;SDS011;40102;50.906;6.972;2023-02-02T15:32:26;9.45;;;1.92;;
54193;SDS011;40102;50.906;6.972;2023-02-02T15:34:57;3.97;;;1.73;;
54193;SDS011;40102;50.906;6.972;2023-02-02T15:37:29;9.38;;;2.33;;
54193;SDS011;40102;50.906;6.972;2023-02-02T15:40:04;7.95;;;2.30;;
54193;SDS011;40102;50.906;6.972;2023-02-02T15:42:39;5.22;;;2.13;;
54193;SDS011;40102;50.906;6.972;2023-02-02T15:45:33;11.32;;;1.85;;
54193;SDS011;40102;50.906;6.972;2023-02-02T15:48:17;8.80;;;2.27;;
54193;SDS011;40102;50.906;6.972;2023-02-02T15:50:45;11.75;;;2.08;;
54193;SDS011;40102;50.906;6.972;2023-02-02T15:53:17;8.27;;;2.20;;
54193;SDS011;40102;50.906;6.972;2023-02-02T15:55:44;13.93;;;2.00;;
54193;SDS011;40102;50.906;6.972;2023-02-02T15:58:29;11.95;;;2.17;;
54193;SDS011;40102;50.906;6.972;2023-02-02T16:01:01;5.30;;;1.75;;
54193;SDS011;40102;50.906;6.972;2023-02-02T16:03:34;4.03;;;1.70;;
54193;SDS011;40102;50.906;6.972;2023-02-02T16:06:05;3.70;;;1.48;;
54193;SDS011;40102;50.906;6.972;2023-02-02T16:08:31;6.55;;;2.05;;
54193;SDS011;40102;50.906;6.972;2023-02-02T16:11:00;10.55;;;2.25;;
54193;SDS011;40102;50.906;6.972;2023-02-02T16:13:29;5.68;;;1.70;;
54193;SDS011;40102;50.906;6.972;2023-02-02T16:15:59;8.73;;;1.73;;
54193;SDS011;40102;50.906;6.972;2023-02-02T16:18:27;9.43;;;2.08;;
54193;SDS011;40102;50.906;6.972;2023-02-02T16:20:54;6.68;;;1.90;;
54193;SDS011;40102;50.906;6.972;2023-02-02T16:23:33;8.98;;;1.65;;
54193;SDS011;40102;50.906;6.972;2023-02-02T16:26:01;8.18;;;1.80;;
54193;SDS011;40102;50.906;6.972;2023-02-02T16:28:29;5.35;;;1.85;;
54193;SDS011;40102;50.906;6.972;2023-02-02T16:30:58;5.28;;;1.40;;
54193;SDS011;40102;50.906;6.972;2023-02-02T16:33:26;7.93;;;2.13;;
54193;SDS011;40102;50.906;6.972;2023-02-02T16:35:58;5.32;;;1.55;;
54193;SDS011;40102;50.906;6.972;2023-02-02T16:38:33;7.57;;;2.25;;
54193;SDS011;40102;50.906;6.972;2023-02-02T16:41:08;5.28;;;1.60;;
54193;SDS011;40102;50.906;6.972;2023-02-02T16:43:36;7.85;;;2.47;;
54193;SDS011;40102;50.906;6.972;2023-02-02T16:46:13;6.85;;;1.65;;
54193;SDS011;40102;50.906;6.972;2023-02-02T16:48:41;5.10;;;1.88;;
54193;SDS011;40102;50.906;6.972;2023-02-02T16:53:41;10.40;;;2.83;;
54193;SDS011;40102;50.906;6.972;2023-02-02T16:56:09;6.80;;;2.22;;
54193;SDS011;40102;50.906;6.972;2023-02-02T16:58:49;5.40;;;1.80;;
54193;SDS011;40102;50.906;6.972;2023-02-02T17:01:16;9.10;;;2.13;;
54193;SDS011;40102;50.906;6.972;2023-02-02T17:03:48;5.72;;;2.05;;
54193;SDS011;40102;50.906;6.972;2023-02-02T17:06:29;4.47;;;1.90;;
54193;SDS011;40102;50.906;6.972;2023-02-02T17:09:04;3.92;;;1.70;;
54193;SDS011;40102;50.906;6.972;2023-02-02T17:11:39;5.93;;;1.80;;
54193;SDS011;40102;50.906;6.972;2023-02-02T17:14:23;5.63;;;1.77;;
54193;SDS011;40102;50.906;6.972;2023-02-02T17:16:53;10.52;;;2.00;;
54193;SDS011;40102;50.906;6.972;2023-02-02T17:19:21;8.82;;;2.00;;
54193;SDS011;40102;50.906;6.972;2023-02-02T17:21:47;8.10;;;2.58;;
54193;SDS011;40102;50.906;6.972;2023-02-02T17:24:13;7.07;;;2.00;;
54193;SDS011;40102;50.906;6.972;2023-02-02T17:26:40;5.00;;;2.00;;
54193;SDS011;40102;50.906;6.972;2023-02-02T17:29:07;8.27;;;2.00;;
54193;SDS011;40102;50.906;6.972;2023-02-02T17:31:36;11.80;;;2.20;;
54193;SDS011;40102;50.906;6.972;2023-02-02T17:34:02;3.88;;;1.60;;
54193;SDS011;40102;50.906;6.972;2023-02-02T17:36:28;3.88;;;2.17;;
54193;SDS011;40102;50.906;6.972;2023-02-02T17:38:56;5.53;;;1.90;;
54193;SDS011;40102;50.906;6.972;2023-02-02T17:41:21;6.45;;;2.22;;
54193;SDS011;40102;50.906;6.972;2023-02-02T17:43:47;4.72;;;1.67;;
54193;SDS011;40102;50.906;6.972;2023-02-02T17:46:12;5.85;;;1.83;;
54193;SDS011;40102;50.906;6.972;2023-02-02T17:48:38;5.45;;;1.95;;
54193;SDS011;40102;50.906;6.972;2023-02-02T17:51:03;6.65;;;2.35;;
54193;SDS011;40102;50.906;6.972;2023-02-02T17:53:31;5.20;;;2.20;;
54193;SDS011;40102;50.906;6.972;2023-02-02T17:55:56;13.35;;;2.38;;
54193;SDS011;40102;50.906;6.972;2023-02-02T17:58:22;5.55;;;2.20;;
54193;SDS011;40102;50.906;6.972;2023-02-02T18:00:51;9.73;;;2.35;;
54193;SDS011;40102;50.906;6.972;2023-02-02T18:05:50;12.88;;;3.47;;
54193;SDS011;40102;50.906;6.972;2023-02-02T18:08:16;7.72;;;2.35;;
54193;SDS011;40102;50.906;6.972;2023-02-02T18:10:42;7.85;;;2.65;;
54193;SDS011;40102;50.906;6.972;2023-02-02T18:13:12;8.90;;;2.35;;